Time,TemperatureF,DewpointF,PressureIn,WindDirection,WindDirectionDegrees,WindSpeedMPH,WindSpeedGustMPH,Humidity,HourlyPrecipIn,Conditions,Clouds,dailyrainin,SolarRadiationWatts/m^2,SoftwareType,DateUTC
2013-02-13 00:02:00,31.0,10.0,-100.00,North,352,0.0,7.0,40,0.00,,,0.00,0.000000,,2013-02-13 07:02:00,
2013-02-13 00:11:00,31.0,10.0,-100.00,North,352,0.0,7.0,40,0.00,,,0.00,0.000000,,2013-02-13 07:11:00,
2013-02-13 00:22:00,31.0,10.0,-100.00,North,352,0.0,7.0,40,0.00,,,0.00,0.000000,,2013-02-13 07:22:00,
2013-02-13 00:52:00,31.0,10.0,-100.00,North,0,5.0,6.0,41,0.00,,,0.00,0.000000,,2013-02-13 07:52:00,
2013-02-13 01:01:00,31.0,10.0,-100.00,North,0,5.0,6.0,41,0.00,,,0.00,0.000000,,2013-02-13 08:01:00,
2013-02-13 01:11:00,31.0,10.0,-100.00,North,0,5.0,6.0,41,0.00,,,0.00,0.000000,,2013-02-13 08:11:00,
2013-02-13 01:21:00,31.0,10.0,-100.00,North,0,5.0,6.0,41,0.00,,,0.00,0.000000,,2013-02-13 08:21:00,
2013-02-13 01:52:00,32.0,9.0,-100.00,ESE,119,4.0,12.0,37,0.00,,,0.00,0.000000,,2013-02-13 08:52:00,
2013-02-13 02:01:00,32.0,9.0,-100.00,ESE,119,4.0,12.0,37,0.00,,,0.00,0.000000,,2013-02-13 09:01:00,
2013-02-13 02:11:00,32.0,9.0,-100.00,ESE,119,4.0,12.0,37,0.00,,,0.00,0.000000,,2013-02-13 09:11:00,
2013-02-13 02:21:00,32.0,9.0,-100.00,ESE,119,4.0,12.0,37,0.00,,,0.00,0.000000,,2013-02-13 09:21:00,
2013-02-13 02:52:00,30.0,5.0,-100.00,ESE,109,2.0,7.0,34,0.00,,,0.00,0.000000,,2013-02-13 09:52:00,
2013-02-13 03:01:00,30.0,5.0,-100.00,ESE,109,2.0,7.0,34,0.00,,,0.00,0.000000,,2013-02-13 10:01:00,
2013-02-13 03:11:00,30.0,5.0,-100.00,ESE,109,2.0,7.0,34,0.00,,,0.00,0.000000,,2013-02-13 10:11:00,
2013-02-13 03:21:00,30.0,5.0,-100.00,ESE,109,2.0,7.0,34,0.00,,,0.00,0.000000,,2013-02-13 10:21:00,
2013-02-13 03:52:00,31.0,5.0,-100.00,ESE,109,1.0,4.0,32,0.00,,,0.00,0.000000,,2013-02-13 10:52:00,
2013-02-13 04:01:00,31.0,5.0,-100.00,ESE,109,1.0,4.0,32,0.00,,,0.00,0.000000,,2013-02-13 11:01:00,
2013-02-13 04:11:00,31.0,5.0,-100.00,ESE,109,1.0,4.0,32,0.00,,,0.00,0.000000,,2013-02-13 11:11:00,
2013-02-13 04:22:00,31.0,5.0,-100.00,ESE,109,1.0,4.0,32,0.00,,,0.00,0.000000,,2013-02-13 11:22:00,
2013-02-13 04:52:00,30.0,6.0,-100.00,East,88,1.0,5.0,36,0.00,,,0.00,0.000000,,2013-02-13 11:52:00,
2013-02-13 05:02:00,30.0,6.0,-100.00,East,88,1.0,5.0,36,0.00,,,0.00,0.000000,,2013-02-13 12:02:00,
2013-02-13 05:11:00,30.0,6.0,-100.00,East,88,1.0,5.0,36,0.00,,,0.00,0.000000,,2013-02-13 12:11:00,
2013-02-13 05:22:00,30.0,6.0,-100.00,East,88,1.0,5.0,36,0.00,,,0.00,0.000000,,2013-02-13 12:22:00,
2013-02-13 05:52:00,31.0,6.0,-100.00,NE,50,0.0,5.0,34,0.00,,,0.00,0.000000,,2013-02-13 12:52:00,
2013-02-13 06:02:00,31.0,6.0,-100.00,NE,50,0.0,5.0,34,0.00,,,0.00,0.000000,,2013-02-13 13:02:00,
2013-02-13 06:11:00,31.0,6.0,-100.00,NE,50,0.0,5.0,34,0.00,,,0.00,0.000000,,2013-02-13 13:11:00,
2013-02-13 06:21:00,31.0,6.0,-100.00,NE,50,0.0,5.0,34,0.00,,,0.00,0.000000,,2013-02-13 13:21:00,
2013-02-13 06:52:00,31.0,7.0,-100.00,NE,46,0.0,6.0,35,0.00,,,0.00,0.000000,,2013-02-13 13:52:00,
2013-02-13 07:01:00,31.0,7.0,-100.00,NE,46,0.0,6.0,35,0.00,,,0.00,0.000000,,2013-02-13 14:01:00,
2013-02-13 07:11:00,31.0,7.0,-100.00,NE,46,0.0,6.0,35,0.00,,,0.00,0.000000,,2013-02-13 14:11:00,
2013-02-13 07:21:00,31.0,7.0,-100.00,NE,46,0.0,6.0,35,0.00,,,0.00,0.000000,,2013-02-13 14:21:00,
2013-02-13 07:52:00,30.0,5.0,-100.00,West,277,0.0,4.0,34,-99.99,,,0.00,7.000000,,2013-02-13 14:52:00,
2013-02-13 08:11:00,30.0,5.0,-100.00,West,277,0.0,4.0,34,-99.99,,,0.00,7.000000,,2013-02-13 15:11:00,
2013-02-13 08:21:00,30.0,5.0,-100.00,West,277,0.0,4.0,34,-99.99,,,0.00,7.000000,,2013-02-13 15:21:00,
2013-02-13 08:52:00,32.0,9.0,-100.00,NE,54,0.0,5.0,37,0.00,,,0.00,112.000000,,2013-02-13 15:52:00,
2013-02-13 09:01:00,32.0,9.0,-100.00,NE,54,0.0,5.0,37,0.00,,,0.00,112.000000,,2013-02-13 16:01:00,
2013-02-13 09:11:00,32.0,9.0,-100.00,NE,54,0.0,5.0,37,0.00,,,0.00,112.000000,,2013-02-13 16:11:00,
2013-02-13 09:21:00,32.0,9.0,-100.00,NE,54,0.0,5.0,37,0.00,,,0.00,112.000000,,2013-02-13 16:21:00,
2013-02-13 09:52:00,39.0,8.0,-100.00,NNE,19,2.0,5.0,27,0.00,,,0.00,461.000000,,2013-02-13 16:52:00,
2013-02-13 10:01:00,39.0,8.0,-100.00,NNE,19,2.0,5.0,27,0.00,,,0.00,461.000000,,2013-02-13 17:01:00,
2013-02-13 10:52:00,39.0,7.0,-100.00,WNW,292,6.0,11.0,26,0.00,,,0.00,686.000000,,2013-02-13 17:52:00,
2013-02-13 11:02:00,39.0,7.0,-100.00,WNW,292,6.0,11.0,26,0.00,,,0.00,686.000000,,2013-02-13 18:02:00,
2013-02-13 11:11:00,39.0,7.0,-100.00,WNW,292,6.0,11.0,26,0.00,,,0.00,686.000000,,2013-02-13 18:11:00,
2013-02-13 11:23:00,39.0,7.0,-100.00,WNW,292,6.0,11.0,26,0.00,,,0.00,686.000000,,2013-02-13 18:23:00,
2013-02-13 11:52:00,43.0,7.0,-100.00,NNW,328,6.0,12.0,22,0.00,,,0.00,878.000000,,2013-02-13 18:52:00,
2013-02-13 12:01:00,43.0,7.0,-100.00,NNW,328,6.0,12.0,22,0.00,,,0.00,878.000000,,2013-02-13 19:01:00,
2013-02-13 12:11:00,43.0,7.0,-100.00,NNW,328,6.0,12.0,22,0.00,,,0.00,878.000000,,2013-02-13 19:11:00,
2013-02-13 12:21:00,43.0,7.0,-100.00,NNW,328,6.0,12.0,22,0.00,,,0.00,878.000000,,2013-02-13 19:21:00,
2013-02-13 12:52:00,43.0,6.0,-100.00,NW,323,6.0,15.0,21,0.00,,,0.00,970.000000,,2013-02-13 19:52:00,
2013-02-13 13:02:00,43.0,6.0,-100.00,NW,323,6.0,15.0,21,0.00,,,0.00,970.000000,,2013-02-13 20:02:00,
2013-02-13 13:11:00,43.0,6.0,-100.00,NW,323,6.0,15.0,21,0.00,,,0.00,970.000000,,2013-02-13 20:11:00,
2013-02-13 13:21:00,43.0,6.0,-100.00,NW,323,6.0,15.0,21,0.00,,,0.00,970.000000,,2013-02-13 20:21:00,
2013-02-13 13:52:00,45.0,6.0,-100.00,NW,325,7.0,15.0,20,0.00,,,0.00,967.000000,,2013-02-13 20:52:00,
2013-02-13 14:01:00,45.0,6.0,-100.00,NW,325,7.0,15.0,20,0.00,,,0.00,967.000000,,2013-02-13 21:01:00,
2013-02-13 14:11:00,45.0,6.0,-100.00,NW,325,7.0,15.0,20,0.00,,,0.00,967.000000,,2013-02-13 21:11:00,
2013-02-13 14:21:00,45.0,6.0,-100.00,NW,325,7.0,15.0,20,0.00,,,0.00,967.000000,,2013-02-13 21:21:00,
2013-02-13 14:52:00,48.0,7.0,-100.00,West,277,7.0,15.0,18,0.00,,,0.00,878.000000,,2013-02-13 21:52:00,
2013-02-13 15:02:00,48.0,7.0,-100.00,West,277,7.0,15.0,18,0.00,,,0.00,878.000000,,2013-02-13 22:02:00,
2013-02-13 15:11:00,48.0,7.0,-100.00,West,277,7.0,15.0,18,0.00,,,0.00,878.000000,,2013-02-13 22:11:00,
2013-02-13 15:21:00,48.0,7.0,-100.00,West,277,7.0,15.0,18,0.00,,,0.00,878.000000,,2013-02-13 22:21:00,
2013-02-13 15:52:00,50.0,6.0,-100.00,WNW,293,4.0,14.0,16,0.00,,,0.00,710.000000,,2013-02-13 22:52:00,
2013-02-13 16:01:00,50.0,6.0,-100.00,WNW,293,4.0,14.0,16,0.00,,,0.00,710.000000,,2013-02-13 23:01:00,
2013-02-13 16:11:00,50.0,6.0,-100.00,WNW,293,4.0,14.0,16,0.00,,,0.00,710.000000,,2013-02-13 23:11:00,
2013-02-13 16:21:00,50.0,6.0,-100.00,WNW,293,4.0,14.0,16,0.00,,,0.00,710.000000,,2013-02-13 23:21:00,
2013-02-13 16:52:00,49.0,6.0,-100.00,NNW,329,4.0,12.0,17,0.00,,,0.00,477.000000,,2013-02-13 23:52:00,
2013-02-13 17:02:00,49.0,6.0,-100.00,NNW,329,4.0,12.0,17,0.00,,,0.00,477.000000,,2013-02-14 00:02:00,
2013-02-13 17:11:00,49.0,6.0,-100.00,NNW,329,4.0,12.0,17,0.00,,,0.00,477.000000,,2013-02-14 00:11:00,
2013-02-13 17:21:00,49.0,6.0,-100.00,NNW,329,4.0,12.0,17,0.00,,,0.00,477.000000,,2013-02-14 00:21:00,
2013-02-13 17:52:00,47.0,4.0,-100.00,West,260,6.0,15.0,17,0.00,,,0.00,214.000000,,2013-02-14 00:52:00,
2013-02-13 18:01:00,47.0,4.0,-100.00,West,260,6.0,15.0,17,0.00,,,0.00,214.000000,,2013-02-14 01:01:00,
2013-02-13 18:11:00,47.0,4.0,-100.00,West,260,6.0,15.0,17,0.00,,,0.00,214.000000,,2013-02-14 01:11:00,
2013-02-13 18:21:00,47.0,4.0,-100.00,West,260,6.0,15.0,17,0.00,,,0.00,214.000000,,2013-02-14 01:21:00,
2013-02-13 18:52:00,41.0,4.0,-100.00,SSW,202,0.0,10.0,21,0.00,,,0.00,14.000000,,2013-02-14 01:52:00,
2013-02-13 19:01:00,41.0,4.0,-100.00,SSW,202,0.0,10.0,21,0.00,,,0.00,14.000000,,2013-02-14 02:01:00,
2013-02-13 19:11:00,41.0,4.0,-100.00,SSW,202,0.0,10.0,21,0.00,,,0.00,14.000000,,2013-02-14 02:11:00,
2013-02-13 19:21:00,41.0,4.0,-100.00,SSW,202,0.0,10.0,21,0.00,,,0.00,14.000000,,2013-02-14 02:21:00,
2013-02-13 20:02:00,36.0,4.0,-100.00,NNE,23,0.0,4.0,26,0.00,,,0.00,0.000000,,2013-02-14 03:02:00,
2013-02-13 20:11:00,36.0,4.0,-100.00,NNE,23,0.0,4.0,26,0.00,,,0.00,0.000000,,2013-02-14 03:11:00,
2013-02-13 20:22:00,36.0,4.0,-100.00,NNE,23,0.0,4.0,26,0.00,,,0.00,0.000000,,2013-02-14 03:22:00,
2013-02-13 20:52:00,38.0,5.0,-100.00,WSW,238,0.0,5.0,25,0.00,,,0.00,0.000000,,2013-02-14 03:52:00,
2013-02-13 21:01:00,38.0,5.0,-100.00,WSW,238,0.0,5.0,25,0.00,,,0.00,0.000000,,2013-02-14 04:01:00,
2013-02-13 21:12:00,38.0,5.0,-100.00,WSW,238,0.0,5.0,25,0.00,,,0.00,0.000000,,2013-02-14 04:12:00,
2013-02-13 21:21:00,38.0,5.0,-100.00,WSW,238,0.0,5.0,25,0.00,,,0.00,0.000000,,2013-02-14 04:21:00,
2013-02-13 21:52:00,38.0,4.0,-100.00,North,357,0.0,7.0,24,0.00,,,0.00,0.000000,,2013-02-14 04:52:00,
2013-02-13 22:02:00,38.0,4.0,-100.00,North,357,0.0,7.0,24,0.00,,,0.00,0.000000,,2013-02-14 05:02:00,
2013-02-13 22:11:00,38.0,4.0,-100.00,North,357,0.0,7.0,24,0.00,,,0.00,0.000000,,2013-02-14 05:11:00,
2013-02-13 22:21:00,38.0,4.0,-100.00,North,357,0.0,7.0,24,0.00,,,0.00,0.000000,,2013-02-14 05:21:00,
2013-02-13 22:52:00,39.0,7.0,-100.00,NNE,31,2.0,5.0,26,0.00,,,0.00,0.000000,,2013-02-14 05:52:00,
2013-02-13 23:02:00,39.0,7.0,-100.00,NNE,31,2.0,5.0,26,0.00,,,0.00,0.000000,,2013-02-14 06:02:00,
2013-02-13 23:11:00,39.0,7.0,-100.00,NNE,31,2.0,5.0,26,0.00,,,0.00,0.000000,,2013-02-14 06:11:00,
2013-02-13 23:21:00,39.0,7.0,-100.00,NNE,31,2.0,5.0,26,0.00,,,0.00,0.000000,,2013-02-14 06:21:00,
2013-02-13 23:52:00,35.0,6.0,-100.00,ENE,76,4.0,6.0,29,0.00,,,0.00,0.000000,,2013-02-14 06:52:00,